Terminal Aerodrome Forecast
Issued by NWS King Salmon, AK

Home | Current Version | Previous Version | Text Only | Print | Product List | Glossary On
Versions: 1 2 3 4 5 6 7 8 9 10 11 12 13 14 15 16 17 18 19 20 21 22 23 24 25 26 27 28 29 30 31 32 33 34 35 36
879
FTAK31 PANC 290525
TAFAKN
TAF
PAKN 290525Z 2906/3006 25011KT P6SM FEW060
     FM291300 20005KT 1/2SM FG VV002
     FM291800 23007KT P6SM FEW010 SCT200
     FM300100 24013KT P6SM VCSH FEW050 BKN080=

USA.gov is the U.S. government's official web portal to all federal, state and local government web resources and services.